createdAt,value
2019-01-27T00:00:43.000Z,33.129
2019-01-27T00:10:43.000Z,33.072
2019-01-27T00:20:43.000Z,33.102
2019-01-27T00:30:43.000Z,33.087
2019-01-27T00:40:43.000Z,33.127
2019-01-27T00:50:43.000Z,33.124
2019-01-27T01:00:43.000Z,33.261
2019-01-27T01:10:43.000Z,33.334
2019-01-27T01:20:43.000Z,33.375
2019-01-27T01:30:43.000Z,33.492
2019-01-27T01:40:43.000Z,33.488
2019-01-27T01:50:43.000Z,33.485
2019-01-27T02:00:43.000Z,33.515
2019-01-27T02:10:43.000Z,33.174
2019-01-27T02:20:43.000Z,33.094
2019-01-27T02:30:43.000Z,33.233
2019-01-27T02:40:43.000Z,33.155
2019-01-27T02:50:43.000Z,33.327
2019-01-27T03:00:43.000Z,33.42
2019-01-27T03:10:43.000Z,33.473
2019-01-27T03:20:43.000Z,33.395
2019-01-27T03:30:43.000Z,33.469
2019-01-27T03:40:43.000Z,33.509
2019-01-27T03:50:43.000Z,33.573
2019-01-27T04:00:43.000Z,33.549
2019-01-27T04:10:44.000Z,33.493
2019-01-27T04:20:44.000Z,33.535
2019-01-27T04:30:44.000Z,33.715
2019-01-27T04:40:44.000Z,33.789
2019-01-27T04:50:44.000Z,33.894
2019-01-27T05:00:44.000Z,33.793
2019-01-27T05:10:44.000Z,33.749
2019-01-27T05:20:44.000Z,33.824
2019-01-27T05:30:44.000Z,33.649
2019-01-27T05:40:44.000Z,33.692
2019-01-27T05:50:44.000Z,33.712
2019-01-27T06:00:45.000Z,33.442
2019-01-27T06:10:44.000Z,33.333
2019-01-27T06:20:44.000Z,33.16
2019-01-27T06:30:48.000Z,33.29
2019-01-27T06:40:44.000Z,33.116
2019-01-27T06:50:44.000Z,33.203
2019-01-27T07:00:44.000Z,32.911
2019-01-27T07:10:44.000Z,32.975
2019-01-27T07:20:44.000Z,32.952
2019-01-27T07:30:44.000Z,32.898
2019-01-27T07:40:44.000Z,32.618
2019-01-27T07:50:44.000Z,32.52
2019-01-27T08:00:44.000Z,32.37
2019-01-27T08:10:44.000Z,32.359
2019-01-27T08:20:44.000Z,32.39
2019-01-27T08:30:44.000Z,32.262
2019-01-27T08:40:44.000Z,32.219
2019-01-27T08:50:44.000Z,31.97
2019-01-27T09:00:44.000Z,32.259
2019-01-27T09:10:46.000Z,31.606
2019-01-27T09:20:44.000Z,31.411
2019-01-27T09:30:44.000Z,31.642
2019-01-27T09:40:44.000Z,31.555
2019-01-27T09:50:44.000Z,31.501
2019-01-27T10:00:44.000Z,31.58
2019-01-27T10:10:44.000Z,31.517
2019-01-27T10:20:44.000Z,31.892
2019-01-27T10:30:44.000Z,32.042
2019-01-27T10:40:44.000Z,32.276
2019-01-27T10:50:44.000Z,32.208
2019-01-27T11:00:44.000Z,32.233
2019-01-27T11:10:44.000Z,31.875
2019-01-27T11:20:44.000Z,31.995
2019-01-27T11:30:44.000Z,32.293
2019-01-27T11:40:44.000Z,32.426
2019-01-27T11:50:44.000Z,32.701
2019-01-27T12:00:44.000Z,33.74
2019-01-27T12:10:44.000Z,33.337
2019-01-27T12:30:45.000Z,33.784
2019-01-27T12:40:45.000Z,33.983
2019-01-27T12:50:45.000Z,33.875
2019-01-27T13:00:45.000Z,34.487
2019-01-27T13:10:45.000Z,34.312
2019-01-27T13:20:45.000Z,34.533
2019-01-27T13:30:45.000Z,34.27
2019-01-27T13:40:45.000Z,34.057
2019-01-27T13:50:46.000Z,33.947
2019-01-27T14:00:45.000Z,33.883
2019-01-27T14:10:45.000Z,33.986
2019-01-27T14:20:45.000Z,34.326
2019-01-27T14:30:45.000Z,34.34
2019-01-27T14:40:45.000Z,34.53
2019-01-27T14:50:45.000Z,34.863
2019-01-27T15:00:45.000Z,34.933
2019-01-27T15:10:45.000Z,34.878
2019-01-27T15:20:46.000Z,35.382
2019-01-27T15:30:46.000Z,35.102
2019-01-27T15:40:48.000Z,34.54
2019-01-27T15:50:45.000Z,34.387
2019-01-27T16:00:45.000Z,34.499
2019-01-27T16:10:45.000Z,34.705
2019-01-27T16:30:45.000Z,34.587
2019-01-27T16:40:45.000Z,34.95
2019-01-27T16:50:45.000Z,34.918
2019-01-27T17:00:45.000Z,35.093
2019-01-27T17:10:45.000Z,34.576
2019-01-27T17:20:45.000Z,34.769
2019-01-27T17:30:45.000Z,35.227
2019-01-27T17:40:45.000Z,35.003
2019-01-27T17:50:45.000Z,35.31
2019-01-27T18:00:45.000Z,35.45
2019-01-27T18:10:45.000Z,35.141
2019-01-27T18:20:45.000Z,35.197
2019-01-27T18:30:45.000Z,35.23
2019-01-27T18:40:45.000Z,35.818
2019-01-27T18:50:45.000Z,34.949
2019-01-27T19:00:46.000Z,35.121
2019-01-27T19:10:45.000Z,34.936
2019-01-27T19:20:46.000Z,34.938
2019-01-27T19:30:45.000Z,34.882
2019-01-27T19:40:46.000Z,34.904
2019-01-27T19:50:45.000Z,35.134
2019-01-27T20:00:46.000Z,34.63
2019-01-27T20:10:45.000Z,36.951
2019-01-27T20:20:46.000Z,37.237
2019-01-27T20:40:46.000Z,37.001
2019-01-27T20:50:46.000Z,36.88
2019-01-27T21:00:46.000Z,37.211
2019-01-27T21:10:46.000Z,36.575
2019-01-27T21:20:46.000Z,36.79
2019-01-27T21:30:46.000Z,36.614
2019-01-27T21:40:47.000Z,36.57
2019-01-27T21:50:46.000Z,37.583
2019-01-27T22:00:46.000Z,37.26
2019-01-27T22:10:46.000Z,37.16
2019-01-27T22:20:46.000Z,37.133
2019-01-27T22:30:46.000Z,37.02
2019-01-27T22:40:46.000Z,36.93
2019-01-27T22:50:46.000Z,36.748
2019-01-27T23:00:46.000Z,36.577
2019-01-27T23:10:46.000Z,36.419
2019-01-27T23:20:46.000Z,36.36
2019-01-27T23:30:46.000Z,36.308
2019-01-27T23:40:46.000Z,36.239
2019-01-27T23:50:46.000Z,36.212
